ΕΜΥ, Εθνική Μετεωρολογική Υπηρεσία - Δελτία Καιρού, Προγνώσεις

ΑΕΡΟΝΑΥΤΙΛΙΑ

GREEK AIRPORTS CODES

LGST 030000Z AUTO 19008KT 140V210 //// // ////// 15/10 Q1017 RE//=

EUROPEAN AIRPORTS CODES

LFPO 030000Z 00000KT CAVOK 01/M00 Q1015 NOSIG=